sensor_id;sensor_type;location;lat;lon;timestamp;P1;durP1;ratioP1;P2;durP2;ratioP2
5127;SDS011;2582;48.770;9.190;2022-12-13T00:01:39;28.37;;;20.83;;
5127;SDS011;2582;48.770;9.190;2022-12-13T00:04:05;26.23;;;19.53;;
5127;SDS011;2582;48.770;9.190;2022-12-13T00:06:32;32.37;;;22.63;;
5127;SDS011;2582;48.770;9.190;2022-12-13T00:08:59;30.80;;;21.00;;
5127;SDS011;2582;48.770;9.190;2022-12-13T00:11:25;30.87;;;19.93;;
5127;SDS011;2582;48.770;9.190;2022-12-13T00:13:51;27.37;;;20.47;;
5127;SDS011;2582;48.770;9.190;2022-12-13T00:16:18;33.50;;;22.57;;
5127;SDS011;2582;48.770;9.190;2022-12-13T00:18:46;27.90;;;20.10;;
5127;SDS011;2582;48.770;9.190;2022-12-13T00:21:15;31.13;;;20.13;;
5127;SDS011;2582;48.770;9.190;2022-12-13T00:23:42;28.50;;;21.03;;
5127;SDS011;2582;48.770;9.190;2022-12-13T00:26:26;29.73;;;22.10;;
5127;SDS011;2582;48.770;9.190;2022-12-13T00:28:54;28.57;;;21.50;;
5127;SDS011;2582;48.770;9.190;2022-12-13T00:31:21;27.83;;;20.30;;
5127;SDS011;2582;48.770;9.190;2022-12-13T00:33:48;27.60;;;19.00;;
5127;SDS011;2582;48.770;9.190;2022-12-13T00:36:14;30.20;;;22.17;;
5127;SDS011;2582;48.770;9.190;2022-12-13T00:38:40;27.20;;;19.67;;
5127;SDS011;2582;48.770;9.190;2022-12-13T00:41:13;27.13;;;20.90;;
5127;SDS011;2582;48.770;9.190;2022-12-13T00:43:40;26.87;;;21.03;;
5127;SDS011;2582;48.770;9.190;2022-12-13T00:46:07;27.37;;;21.47;;
5127;SDS011;2582;48.770;9.190;2022-12-13T00:48:40;31.17;;;21.83;;
5127;SDS011;2582;48.770;9.190;2022-12-13T00:51:06;31.87;;;22.33;;
5127;SDS011;2582;48.770;9.190;2022-12-13T00:53:33;28.37;;;21.77;;
5127;SDS011;2582;48.770;9.190;2022-12-13T00:55:59;34.40;;;22.10;;
5127;SDS011;2582;48.770;9.190;2022-12-13T00:58:25;27.70;;;21.70;;
5127;SDS011;2582;48.770;9.190;2022-12-13T01:00:50;31.27;;;22.87;;
5127;SDS011;2582;48.770;9.190;2022-12-13T01:03:16;30.27;;;22.73;;
5127;SDS011;2582;48.770;9.190;2022-12-13T01:05:47;30.50;;;22.50;;
5127;SDS011;2582;48.770;9.190;2022-12-13T01:08:13;31.53;;;22.73;;
5127;SDS011;2582;48.770;9.190;2022-12-13T01:10:45;29.93;;;21.93;;
5127;SDS011;2582;48.770;9.190;2022-12-13T01:13:11;33.40;;;23.33;;
5127;SDS011;2582;48.770;9.190;2022-12-13T01:15:41;33.37;;;23.20;;
5127;SDS011;2582;48.770;9.190;2022-12-13T01:18:07;28.23;;;21.80;;
5127;SDS011;2582;48.770;9.190;2022-12-13T01:20:33;30.53;;;22.90;;
5127;SDS011;2582;48.770;9.190;2022-12-13T01:22:59;34.63;;;22.43;;
5127;SDS011;2582;48.770;9.190;2022-12-13T01:25:24;31.70;;;23.13;;
5127;SDS011;2582;48.770;9.190;2022-12-13T01:27:50;31.67;;;22.80;;
5127;SDS011;2582;48.770;9.190;2022-12-13T01:30:16;31.87;;;22.33;;
5127;SDS011;2582;48.770;9.190;2022-12-13T01:32:41;31.40;;;22.50;;
5127;SDS011;2582;48.770;9.190;2022-12-13T01:35:07;37.30;;;24.40;;
5127;SDS011;2582;48.770;9.190;2022-12-13T01:37:33;33.43;;;22.50;;
5127;SDS011;2582;48.770;9.190;2022-12-13T01:40:00;28.70;;;21.90;;
5127;SDS011;2582;48.770;9.190;2022-12-13T01:42:27;32.07;;;23.53;;
5127;SDS011;2582;48.770;9.190;2022-12-13T01:44:57;29.50;;;22.20;;
5127;SDS011;2582;48.770;9.190;2022-12-13T01:47:31;34.33;;;23.53;;
5127;SDS011;2582;48.770;9.190;2022-12-13T01:50:03;33.33;;;22.27;;
5127;SDS011;2582;48.770;9.190;2022-12-13T01:52:33;30.73;;;21.97;;
5127;SDS011;2582;48.770;9.190;2022-12-13T01:55:00;35.13;;;24.00;;
5127;SDS011;2582;48.770;9.190;2022-12-13T01:57:28;31.03;;;21.20;;
5127;SDS011;2582;48.770;9.190;2022-12-13T01:59:54;35.80;;;24.27;;
5127;SDS011;2582;48.770;9.190;2022-12-13T02:02:19;34.53;;;23.43;;
5127;SDS011;2582;48.770;9.190;2022-12-13T02:07:25;38.73;;;23.43;;
5127;SDS011;2582;48.770;9.190;2022-12-13T02:09:54;35.33;;;22.23;;
5127;SDS011;2582;48.770;9.190;2022-12-13T02:12:21;35.73;;;24.20;;
5127;SDS011;2582;48.770;9.190;2022-12-13T02:14:53;35.83;;;23.97;;
5127;SDS011;2582;48.770;9.190;2022-12-13T02:19:58;33.00;;;22.03;;
5127;SDS011;2582;48.770;9.190;2022-12-13T02:25:23;35.93;;;23.47;;
5127;SDS011;2582;48.770;9.190;2022-12-13T02:31:23;29.37;;;22.53;;
5127;SDS011;2582;48.770;9.190;2022-12-13T02:33:55;30.20;;;20.97;;
5127;SDS011;2582;48.770;9.190;2022-12-13T02:36:32;27.83;;;20.93;;
5127;SDS011;2582;48.770;9.190;2022-12-13T02:39:08;30.53;;;22.93;;
5127;SDS011;2582;48.770;9.190;2022-12-13T02:41:45;35.13;;;23.90;;
5127;SDS011;2582;48.770;9.190;2022-12-13T02:44:21;33.07;;;23.10;;
5127;SDS011;2582;48.770;9.190;2022-12-13T02:46:51;31.83;;;22.73;;
5127;SDS011;2582;48.770;9.190;2022-12-13T02:49:31;30.20;;;22.00;;
5127;SDS011;2582;48.770;9.190;2022-12-13T02:51:59;33.47;;;22.47;;
5127;SDS011;2582;48.770;9.190;2022-12-13T02:54:27;31.93;;;21.90;;
5127;SDS011;2582;48.770;9.190;2022-12-13T02:56:54;35.33;;;22.30;;
5127;SDS011;2582;48.770;9.190;2022-12-13T02:59:20;29.57;;;21.20;;
5127;SDS011;2582;48.770;9.190;2022-12-13T03:01:53;28.13;;;20.50;;
5127;SDS011;2582;48.770;9.190;2022-12-13T03:08:09;23.90;;;18.80;;
5127;SDS011;2582;48.770;9.190;2022-12-13T03:13:54;29.33;;;20.67;;
5127;SDS011;2582;48.770;9.190;2022-12-13T03:16:26;29.00;;;21.10;;
5127;SDS011;2582;48.770;9.190;2022-12-13T03:19:08;30.63;;;21.53;;
5127;SDS011;2582;48.770;9.190;2022-12-13T03:21:45;33.30;;;21.90;;
5127;SDS011;2582;48.770;9.190;2022-12-13T03:24:12;26.93;;;19.67;;
5127;SDS011;2582;48.770;9.190;2022-12-13T03:26:40;33.77;;;22.97;;
5127;SDS011;2582;48.770;9.190;2022-12-13T03:29:06;28.83;;;19.97;;
5127;SDS011;2582;48.770;9.190;2022-12-13T03:31:32;28.83;;;21.10;;
5127;SDS011;2582;48.770;9.190;2022-12-13T03:33:57;32.33;;;21.10;;
5127;SDS011;2582;48.770;9.190;2022-12-13T03:36:23;26.77;;;19.03;;
5127;SDS011;2582;48.770;9.190;2022-12-13T03:38:49;29.20;;;20.93;;
5127;SDS011;2582;48.770;9.190;2022-12-13T03:41:19;28.97;;;21.10;;
5127;SDS011;2582;48.770;9.190;2022-12-13T03:43:48;30.93;;;21.00;;
5127;SDS011;2582;48.770;9.190;2022-12-13T03:46:14;24.60;;;20.23;;
5127;SDS011;2582;48.770;9.190;2022-12-13T03:48:39;31.73;;;20.90;;
5127;SDS011;2582;48.770;9.190;2022-12-13T03:51:05;30.17;;;20.33;;
5127;SDS011;2582;48.770;9.190;2022-12-13T03:53:31;27.70;;;20.53;;
5127;SDS011;2582;48.770;9.190;2022-12-13T03:55:56;25.77;;;19.00;;
5127;SDS011;2582;48.770;9.190;2022-12-13T03:58:22;27.27;;;17.70;;
5127;SDS011;2582;48.770;9.190;2022-12-13T04:00:48;29.37;;;20.00;;
5127;SDS011;2582;48.770;9.190;2022-12-13T04:03:14;25.17;;;19.43;;
5127;SDS011;2582;48.770;9.190;2022-12-13T04:05:39;28.83;;;21.03;;
5127;SDS011;2582;48.770;9.190;2022-12-13T04:08:05;25.80;;;17.60;;
5127;SDS011;2582;48.770;9.190;2022-12-13T04:10:32;27.40;;;18.47;;
5127;SDS011;2582;48.770;9.190;2022-12-13T04:12:59;27.97;;;18.63;;
5127;SDS011;2582;48.770;9.190;2022-12-13T04:15:43;24.70;;;17.70;;
5127;SDS011;2582;48.770;9.190;2022-12-13T04:18:13;19.97;;;17.07;;
5127;SDS011;2582;48.770;9.190;2022-12-13T04:20:40;26.87;;;18.03;;
5127;SDS011;2582;48.770;9.190;2022-12-13T04:23:05;24.83;;;18.00;;
5127;SDS011;2582;48.770;9.190;2022-12-13T04:25:31;23.30;;;16.43;;
5127;SDS011;2582;48.770;9.190;2022-12-13T04:27:56;25.90;;;17.10;;
5127;SDS011;2582;48.770;9.190;2022-12-13T04:30:22;24.97;;;16.47;;
5127;SDS011;2582;48.770;9.190;2022-12-13T04:32:47;22.83;;;16.43;;
5127;SDS011;2582;48.770;9.190;2022-12-13T04:35:13;23.97;;;16.67;;
5127;SDS011;2582;48.770;9.190;2022-12-13T04:37:39;23.70;;;16.83;;
5127;SDS011;2582;48.770;9.190;2022-12-13T04:40:05;25.37;;;17.70;;
5127;SDS011;2582;48.770;9.190;2022-12-13T04:42:31;25.33;;;17.10;;
5127;SDS011;2582;48.770;9.190;2022-12-13T04:44:56;25.00;;;17.40;;
5127;SDS011;2582;48.770;9.190;2022-12-13T04:47:22;25.57;;;17.83;;
5127;SDS011;2582;48.770;9.190;2022-12-13T04:49:47;24.93;;;17.77;;
5127;SDS011;2582;48.770;9.190;2022-12-13T04:52:13;22.53;;;14.97;;
5127;SDS011;2582;48.770;9.190;2022-12-13T04:54:39;20.17;;;14.93;;
5127;SDS011;2582;48.770;9.190;2022-12-13T04:57:05;23.93;;;16.33;;
5127;SDS011;2582;48.770;9.190;2022-12-13T04:59:33;20.20;;;15.80;;
5127;SDS011;2582;48.770;9.190;2022-12-13T05:01:59;24.70;;;16.93;;
5127;SDS011;2582;48.770;9.190;2022-12-13T05:04:24;20.67;;;16.17;;
5127;SDS011;2582;48.770;9.190;2022-12-13T05:06:50;22.93;;;15.67;;
5127;SDS011;2582;48.770;9.190;2022-12-13T05:09:15;28.03;;;16.20;;
5127;SDS011;2582;48.770;9.190;2022-12-13T05:11:41;21.43;;;15.33;;
5127;SDS011;2582;48.770;9.190;2022-12-13T05:14:06;21.07;;;15.70;;
5127;SDS011;2582;48.770;9.190;2022-12-13T05:16:32;24.30;;;16.80;;
5127;SDS011;2582;48.770;9.190;2022-12-13T05:18:58;22.43;;;17.23;;
5127;SDS011;2582;48.770;9.190;2022-12-13T05:21:23;23.70;;;16.17;;
5127;SDS011;2582;48.770;9.190;2022-12-13T05:23:49;21.43;;;15.00;;
5127;SDS011;2582;48.770;9.190;2022-12-13T05:26:14;20.80;;;15.47;;
5127;SDS011;2582;48.770;9.190;2022-12-13T05:28:40;20.27;;;14.90;;
5127;SDS011;2582;48.770;9.190;2022-12-13T05:31:07;26.27;;;17.67;;
5127;SDS011;2582;48.770;9.190;2022-12-13T05:33:33;20.17;;;14.90;;
5127;SDS011;2582;48.770;9.190;2022-12-13T05:35:59;24.20;;;16.50;;
5127;SDS011;2582;48.770;9.190;2022-12-13T05:38:25;23.97;;;16.57;;
5127;SDS011;2582;48.770;9.190;2022-12-13T05:40:50;22.07;;;15.80;;
5127;SDS011;2582;48.770;9.190;2022-12-13T05:43:16;23.27;;;16.03;;
5127;SDS011;2582;48.770;9.190;2022-12-13T05:45:41;25.40;;;17.00;;
5127;SDS011;2582;48.770;9.190;2022-12-13T05:48:07;25.03;;;16.70;;
5127;SDS011;2582;48.770;9.190;2022-12-13T05:50:34;24.20;;;16.50;;
5127;SDS011;2582;48.770;9.190;2022-12-13T05:53:00;23.47;;;16.97;;
5127;SDS011;2582;48.770;9.190;2022-12-13T05:55:27;21.83;;;16.50;;
5127;SDS011;2582;48.770;9.190;2022-12-13T05:57:53;23.73;;;16.43;;
5127;SDS011;2582;48.770;9.190;2022-12-13T06:00:18;22.43;;;16.23;;
5127;SDS011;2582;48.770;9.190;2022-12-13T06:02:44;23.80;;;15.40;;
5127;SDS011;2582;48.770;9.190;2022-12-13T06:05:10;27.13;;;16.33;;
5127;SDS011;2582;48.770;9.190;2022-12-13T06:07:36;20.20;;;15.17;;
5127;SDS011;2582;48.770;9.190;2022-12-13T06:10:03;22.87;;;16.23;;
5127;SDS011;2582;48.770;9.190;2022-12-13T06:12:29;27.17;;;17.37;;
5127;SDS011;2582;48.770;9.190;2022-12-13T06:14:55;25.43;;;16.23;;
5127;SDS011;2582;48.770;9.190;2022-12-13T06:17:20;23.60;;;16.33;;
5127;SDS011;2582;48.770;9.190;2022-12-13T06:19:49;19.63;;;15.23;;
5127;SDS011;2582;48.770;9.190;2022-12-13T06:22:15;23.10;;;17.60;;
5127;SDS011;2582;48.770;9.190;2022-12-13T06:24:40;21.63;;;18.00;;
5127;SDS011;2582;48.770;9.190;2022-12-13T06:27:06;19.23;;;14.60;;
5127;SDS011;2582;48.770;9.190;2022-12-13T06:29:32;22.07;;;17.00;;
5127;SDS011;2582;48.770;9.190;2022-12-13T06:31:58;22.90;;;15.43;;
5127;SDS011;2582;48.770;9.190;2022-12-13T06:34:25;21.97;;;16.17;;
5127;SDS011;2582;48.770;9.190;2022-12-13T06:36:51;21.33;;;15.47;;
5127;SDS011;2582;48.770;9.190;2022-12-13T06:39:17;19.43;;;14.80;;
5127;SDS011;2582;48.770;9.190;2022-12-13T06:41:43;21.23;;;15.87;;
5127;SDS011;2582;48.770;9.190;2022-12-13T06:44:15;24.20;;;18.80;;
5127;SDS011;2582;48.770;9.190;2022-12-13T06:46:41;26.73;;;16.80;;
5127;SDS011;2582;48.770;9.190;2022-12-13T06:49:06;21.30;;;15.47;;
5127;SDS011;2582;48.770;9.190;2022-12-13T06:51:32;23.57;;;16.43;;
5127;SDS011;2582;48.770;9.190;2022-12-13T06:53:59;19.53;;;15.57;;
5127;SDS011;2582;48.770;9.190;2022-12-13T06:56:26;21.00;;;14.90;;
5127;SDS011;2582;48.770;9.190;2022-12-13T06:58:52;20.03;;;15.13;;
5127;SDS011;2582;48.770;9.190;2022-12-13T07:01:17;27.03;;;18.17;;
5127;SDS011;2582;48.770;9.190;2022-12-13T07:03:43;29.90;;;20.90;;
5127;SDS011;2582;48.770;9.190;2022-12-13T07:08:40;29.00;;;20.90;;
5127;SDS011;2582;48.770;9.190;2022-12-13T07:11:06;23.57;;;16.90;;
5127;SDS011;2582;48.770;9.190;2022-12-13T07:13:37;23.27;;;14.80;;
5127;SDS011;2582;48.770;9.190;2022-12-13T07:16:02;24.33;;;17.80;;
5127;SDS011;2582;48.770;9.190;2022-12-13T07:18:28;25.43;;;16.77;;
5127;SDS011;2582;48.770;9.190;2022-12-13T07:20:54;21.87;;;16.57;;
5127;SDS011;2582;48.770;9.190;2022-12-13T07:23:19;25.17;;;17.63;;
5127;SDS011;2582;48.770;9.190;2022-12-13T07:25:51;20.50;;;15.80;;
5127;SDS011;2582;48.770;9.190;2022-12-13T07:28:18;23.93;;;17.00;;
5127;SDS011;2582;48.770;9.190;2022-12-13T07:30:44;19.80;;;15.50;;
5127;SDS011;2582;48.770;9.190;2022-12-13T07:33:11;17.50;;;14.30;;
5127;SDS011;2582;48.770;9.190;2022-12-13T07:35:37;22.27;;;15.37;;
5127;SDS011;2582;48.770;9.190;2022-12-13T07:38:03;22.17;;;15.70;;
5127;SDS011;2582;48.770;9.190;2022-12-13T07:40:29;19.20;;;15.23;;
5127;SDS011;2582;48.770;9.190;2022-12-13T07:42:58;23.57;;;16.00;;
5127;SDS011;2582;48.770;9.190;2022-12-13T07:45:23;19.87;;;14.93;;
5127;SDS011;2582;48.770;9.190;2022-12-13T07:47:49;21.27;;;16.90;;
5127;SDS011;2582;48.770;9.190;2022-12-13T07:50:15;21.67;;;15.20;;
5127;SDS011;2582;48.770;9.190;2022-12-13T07:52:41;22.63;;;17.50;;
5127;SDS011;2582;48.770;9.190;2022-12-13T07:55:06;22.40;;;16.73;;
5127;SDS011;2582;48.770;9.190;2022-12-13T07:57:33;22.63;;;17.33;;
5127;SDS011;2582;48.770;9.190;2022-12-13T07:59:58;21.90;;;16.77;;
5127;SDS011;2582;48.770;9.190;2022-12-13T08:02:24;23.37;;;17.63;;
5127;SDS011;2582;48.770;9.190;2022-12-13T08:04:50;24.97;;;20.30;;
5127;SDS011;2582;48.770;9.190;2022-12-13T08:07:16;23.10;;;16.83;;
5127;SDS011;2582;48.770;9.190;2022-12-13T08:09:42;20.67;;;16.13;;
5127;SDS011;2582;48.770;9.190;2022-12-13T08:12:07;21.57;;;15.93;;
5127;SDS011;2582;48.770;9.190;2022-12-13T08:14:33;21.27;;;15.90;;
5127;SDS011;2582;48.770;9.190;2022-12-13T08:16:59;21.00;;;15.20;;
5127;SDS011;2582;48.770;9.190;2022-12-13T08:19:24;25.83;;;17.93;;
5127;SDS011;2582;48.770;9.190;2022-12-13T08:21:50;21.70;;;15.80;;
5127;SDS011;2582;48.770;9.190;2022-12-13T08:24:20;18.13;;;14.03;;
5127;SDS011;2582;48.770;9.190;2022-12-13T08:26:47;26.03;;;17.40;;
5127;SDS011;2582;48.770;9.190;2022-12-13T08:29:13;18.10;;;14.77;;
5127;SDS011;2582;48.770;9.190;2022-12-13T08:31:39;18.87;;;15.40;;
5127;SDS011;2582;48.770;9.190;2022-12-13T08:34:05;22.50;;;15.43;;
5127;SDS011;2582;48.770;9.190;2022-12-13T08:36:30;20.30;;;16.00;;
5127;SDS011;2582;48.770;9.190;2022-12-13T08:38:56;28.40;;;20.73;;
5127;SDS011;2582;48.770;9.190;2022-12-13T08:41:22;25.37;;;18.47;;
5127;SDS011;2582;48.770;9.190;2022-12-13T08:43:48;30.00;;;21.60;;
5127;SDS011;2582;48.770;9.190;2022-12-13T08:46:14;26.23;;;19.83;;
5127;SDS011;2582;48.770;9.190;2022-12-13T08:48:40;24.20;;;18.47;;
5127;SDS011;2582;48.770;9.190;2022-12-13T08:51:07;26.47;;;19.63;;
5127;SDS011;2582;48.770;9.190;2022-12-13T08:53:34;31.97;;;20.33;;
5127;SDS011;2582;48.770;9.190;2022-12-13T08:56:00;26.60;;;18.87;;
5127;SDS011;2582;48.770;9.190;2022-12-13T08:58:27;29.03;;;19.93;;
5127;SDS011;2582;48.770;9.190;2022-12-13T09:00:53;25.20;;;18.70;;
5127;SDS011;2582;48.770;9.190;2022-12-13T09:03:19;30.33;;;20.73;;
5127;SDS011;2582;48.770;9.190;2022-12-13T09:05:44;32.20;;;19.57;;
5127;SDS011;2582;48.770;9.190;2022-12-13T09:08:10;25.93;;;18.37;;
5127;SDS011;2582;48.770;9.190;2022-12-13T09:10:36;23.53;;;16.83;;
5127;SDS011;2582;48.770;9.190;2022-12-13T09:13:01;26.57;;;18.93;;
5127;SDS011;2582;48.770;9.190;2022-12-13T09:15:28;26.77;;;19.20;;
5127;SDS011;2582;48.770;9.190;2022-12-13T09:17:55;27.27;;;19.93;;
5127;SDS011;2582;48.770;9.190;2022-12-13T09:20:21;29.30;;;20.53;;
5127;SDS011;2582;48.770;9.190;2022-12-13T09:22:46;22.80;;;17.97;;
5127;SDS011;2582;48.770;9.190;2022-12-13T09:25:12;23.97;;;18.27;;
5127;SDS011;2582;48.770;9.190;2022-12-13T09:27:38;28.97;;;21.87;;
5127;SDS011;2582;48.770;9.190;2022-12-13T09:30:04;22.60;;;17.17;;
5127;SDS011;2582;48.770;9.190;2022-12-13T09:32:31;23.77;;;17.07;;
5127;SDS011;2582;48.770;9.190;2022-12-13T09:34:57;25.90;;;17.60;;
5127;SDS011;2582;48.770;9.190;2022-12-13T09:37:23;20.73;;;15.90;;
5127;SDS011;2582;48.770;9.190;2022-12-13T09:39:49;23.00;;;16.10;;
5127;SDS011;2582;48.770;9.190;2022-12-13T09:42:24;20.43;;;16.37;;
5127;SDS011;2582;48.770;9.190;2022-12-13T09:44:54;22.03;;;17.07;;
5127;SDS011;2582;48.770;9.190;2022-12-13T09:47:27;26.50;;;18.43;;
5127;SDS011;2582;48.770;9.190;2022-12-13T09:49:53;19.97;;;15.70;;
5127;SDS011;2582;48.770;9.190;2022-12-13T09:52:20;23.43;;;17.53;;
5127;SDS011;2582;48.770;9.190;2022-12-13T09:54:52;23.07;;;16.73;;
5127;SDS011;2582;48.770;9.190;2022-12-13T09:57:21;22.60;;;16.83;;
5127;SDS011;2582;48.770;9.190;2022-12-13T09:59:53;22.90;;;16.83;;
5127;SDS011;2582;48.770;9.190;2022-12-13T10:02:23;22.20;;;16.40;;
5127;SDS011;2582;48.770;9.190;2022-12-13T10:04:53;20.80;;;16.00;;
5127;SDS011;2582;48.770;9.190;2022-12-13T10:07:22;25.57;;;17.43;;
5127;SDS011;2582;48.770;9.190;2022-12-13T10:09:52;22.67;;;17.20;;
5127;SDS011;2582;48.770;9.190;2022-12-13T10:12:24;23.63;;;16.30;;
5127;SDS011;2582;48.770;9.190;2022-12-13T10:14:50;19.53;;;15.10;;
5127;SDS011;2582;48.770;9.190;2022-12-13T10:17:21;22.77;;;16.33;;
5127;SDS011;2582;48.770;9.190;2022-12-13T10:19:48;24.17;;;17.50;;
5127;SDS011;2582;48.770;9.190;2022-12-13T10:22:16;22.63;;;15.70;;
5127;SDS011;2582;48.770;9.190;2022-12-13T10:25:04;22.43;;;17.67;;
5127;SDS011;2582;48.770;9.190;2022-12-13T10:32:41;22.07;;;16.20;;
5127;SDS011;2582;48.770;9.190;2022-12-13T10:37:44;22.53;;;16.50;;
5127;SDS011;2582;48.770;9.190;2022-12-13T10:40:26;21.80;;;16.07;;
5127;SDS011;2582;48.770;9.190;2022-12-13T10:43:11;25.27;;;15.53;;
5127;SDS011;2582;48.770;9.190;2022-12-13T10:45:41;26.60;;;16.40;;
5127;SDS011;2582;48.770;9.190;2022-12-13T10:48:33;25.40;;;17.67;;
5127;SDS011;2582;48.770;9.190;2022-12-13T10:51:19;22.77;;;16.97;;
5127;SDS011;2582;48.770;9.190;2022-12-13T10:53:47;20.73;;;14.40;;
5127;SDS011;2582;48.770;9.190;2022-12-13T10:56:19;21.17;;;14.90;;
5127;SDS011;2582;48.770;9.190;2022-12-13T10:58:46;21.13;;;13.73;;
5127;SDS011;2582;48.770;9.190;2022-12-13T11:03:59;20.27;;;14.83;;
5127;SDS011;2582;48.770;9.190;2022-12-13T11:06:27;18.47;;;14.90;;
5127;SDS011;2582;48.770;9.190;2022-12-13T11:11:41;25.77;;;15.80;;
5127;SDS011;2582;48.770;9.190;2022-12-13T11:14:13;23.27;;;15.73;;
5127;SDS011;2582;48.770;9.190;2022-12-13T11:16:42;21.90;;;15.60;;
5127;SDS011;2582;48.770;9.190;2022-12-13T11:19:19;15.10;;;13.40;;
5127;SDS011;2582;48.770;9.190;2022-12-13T11:21:48;33.07;;;16.27;;
5127;SDS011;2582;48.770;9.190;2022-12-13T11:24:25;20.10;;;14.13;;
5127;SDS011;2582;48.770;9.190;2022-12-13T11:26:56;24.33;;;14.40;;
5127;SDS011;2582;48.770;9.190;2022-12-13T11:29:50;20.30;;;15.23;;
5127;SDS011;2582;48.770;9.190;2022-12-13T11:32:53;20.67;;;14.70;;
5127;SDS011;2582;48.770;9.190;2022-12-13T11:35:22;19.47;;;13.67;;
5127;SDS011;2582;48.770;9.190;2022-12-13T11:38:09;18.00;;;12.60;;
5127;SDS011;2582;48.770;9.190;2022-12-13T11:40:41;19.20;;;14.03;;
5127;SDS011;2582;48.770;9.190;2022-12-13T11:46:01;22.30;;;15.70;;
5127;SDS011;2582;48.770;9.190;2022-12-13T11:48:51;22.73;;;15.67;;
5127;SDS011;2582;48.770;9.190;2022-12-13T11:51:26;27.20;;;15.33;;
5127;SDS011;2582;48.770;9.190;2022-12-13T11:54:09;21.00;;;14.30;;
5127;SDS011;2582;48.770;9.190;2022-12-13T11:56:41;21.10;;;15.03;;
5127;SDS011;2582;48.770;9.190;2022-12-13T12:00:14;22.13;;;14.70;;
5127;SDS011;2582;48.770;9.190;2022-12-13T12:02:18;17.90;;;12.57;;
5127;SDS011;2582;48.770;9.190;2022-12-13T12:04:49;17.70;;;12.37;;
5127;SDS011;2582;48.770;9.190;2022-12-13T12:07:28;23.03;;;14.43;;
5127;SDS011;2582;48.770;9.190;2022-12-13T12:10:03;17.00;;;12.43;;
5127;SDS011;2582;48.770;9.190;2022-12-13T12:12:36;23.60;;;14.57;;
5127;SDS011;2582;48.770;9.190;2022-12-13T12:17:41;16.77;;;13.80;;
5127;SDS011;2582;48.770;9.190;2022-12-13T12:20:14;24.90;;;15.33;;
5127;SDS011;2582;48.770;9.190;2022-12-13T12:25:46;21.70;;;14.80;;
5127;SDS011;2582;48.770;9.190;2022-12-13T12:28:36;19.77;;;14.20;;
5127;SDS011;2582;48.770;9.190;2022-12-13T12:31:22;20.00;;;14.83;;
5127;SDS011;2582;48.770;9.190;2022-12-13T12:34:10;20.07;;;14.77;;
5127;SDS011;2582;48.770;9.190;2022-12-13T12:47:43;30.10;;;16.30;;
5127;SDS011;2582;48.770;9.190;2022-12-13T12:50:38;25.80;;;14.90;;
5127;SDS011;2582;48.770;9.190;2022-12-13T12:56:12;26.37;;;16.23;;
5127;SDS011;2582;48.770;9.190;2022-12-13T13:01:56;27.93;;;14.23;;
5127;SDS011;2582;48.770;9.190;2022-12-13T13:04:34;19.23;;;15.43;;
5127;SDS011;2582;48.770;9.190;2022-12-13T13:07:09;21.33;;;14.07;;
5127;SDS011;2582;48.770;9.190;2022-12-13T13:09:53;24.13;;;13.97;;
5127;SDS011;2582;48.770;9.190;2022-12-13T13:12:21;20.87;;;14.93;;
5127;SDS011;2582;48.770;9.190;2022-12-13T13:14:48;19.00;;;13.37;;
5127;SDS011;2582;48.770;9.190;2022-12-13T13:19:49;23.83;;;15.57;;
5127;SDS011;2582;48.770;9.190;2022-12-13T13:22:37;20.50;;;14.50;;
5127;SDS011;2582;48.770;9.190;2022-12-13T13:27:37;26.00;;;14.10;;
5127;SDS011;2582;48.770;9.190;2022-12-13T13:30:13;21.17;;;14.47;;
5127;SDS011;2582;48.770;9.190;2022-12-13T13:32:41;22.73;;;16.87;;
5127;SDS011;2582;48.770;9.190;2022-12-13T13:38:01;22.23;;;12.03;;
5127;SDS011;2582;48.770;9.190;2022-12-13T13:40:35;21.83;;;14.07;;
5127;SDS011;2582;48.770;9.190;2022-12-13T14:00:14;19.43;;;12.67;;
5127;SDS011;2582;48.770;9.190;2022-12-13T14:14:42;15.63;;;11.80;;
5127;SDS011;2582;48.770;9.190;2022-12-13T14:30:57;23.87;;;12.10;;
5127;SDS011;2582;48.770;9.190;2022-12-13T14:33:23;16.53;;;11.70;;
5127;SDS011;2582;48.770;9.190;2022-12-13T14:35:50;18.87;;;12.17;;
5127;SDS011;2582;48.770;9.190;2022-12-13T14:38:23;26.20;;;16.30;;
5127;SDS011;2582;48.770;9.190;2022-12-13T14:40:52;21.50;;;13.47;;
5127;SDS011;2582;48.770;9.190;2022-12-13T14:45:58;20.80;;;13.10;;
5127;SDS011;2582;48.770;9.190;2022-12-13T14:48:24;21.47;;;14.10;;
5127;SDS011;2582;48.770;9.190;2022-12-13T14:50:51;27.90;;;15.40;;
5127;SDS011;2582;48.770;9.190;2022-12-13T14:58:29;24.53;;;14.33;;
5127;SDS011;2582;48.770;9.190;2022-12-13T15:00:55;22.40;;;13.30;;
5127;SDS011;2582;48.770;9.190;2022-12-13T15:03:21;17.37;;;11.83;;
5127;SDS011;2582;48.770;9.190;2022-12-13T15:05:54;29.83;;;14.90;;
5127;SDS011;2582;48.770;9.190;2022-12-13T15:08:21;21.03;;;11.80;;
5127;SDS011;2582;48.770;9.190;2022-12-13T15:10:54;18.60;;;11.87;;
5127;SDS011;2582;48.770;9.190;2022-12-13T15:13:38;20.33;;;12.73;;
5127;SDS011;2582;48.770;9.190;2022-12-13T15:16:22;16.30;;;10.50;;
5127;SDS011;2582;48.770;9.190;2022-12-13T15:19:05;17.60;;;11.47;;
5127;SDS011;2582;48.770;9.190;2022-12-13T15:21:55;30.27;;;12.73;;
5127;SDS011;2582;48.770;9.190;2022-12-13T15:24:27;15.57;;;10.70;;
5127;SDS011;2582;48.770;9.190;2022-12-13T15:26:56;18.80;;;10.83;;
5127;SDS011;2582;48.770;9.190;2022-12-13T15:29:24;18.20;;;12.17;;
5127;SDS011;2582;48.770;9.190;2022-12-13T15:31:51;21.43;;;11.40;;
5127;SDS011;2582;48.770;9.190;2022-12-13T15:36:53;18.67;;;12.87;;
5127;SDS011;2582;48.770;9.190;2022-12-13T15:39:20;16.57;;;10.80;;
5127;SDS011;2582;48.770;9.190;2022-12-13T15:41:48;20.13;;;11.87;;
5127;SDS011;2582;48.770;9.190;2022-12-13T15:46:46;23.47;;;12.37;;
5127;SDS011;2582;48.770;9.190;2022-12-13T15:49:21;16.80;;;11.80;;
5127;SDS011;2582;48.770;9.190;2022-12-13T15:51:56;19.53;;;11.43;;
5127;SDS011;2582;48.770;9.190;2022-12-13T15:54:25;26.00;;;11.60;;
5127;SDS011;2582;48.770;9.190;2022-12-13T15:59:28;20.93;;;15.17;;
5127;SDS011;2582;48.770;9.190;2022-12-13T16:01:56;20.77;;;14.97;;
5127;SDS011;2582;48.770;9.190;2022-12-13T16:04:22;24.27;;;13.47;;
5127;SDS011;2582;48.770;9.190;2022-12-13T16:06:50;24.20;;;12.97;;
5127;SDS011;2582;48.770;9.190;2022-12-13T16:09:20;19.23;;;12.13;;
5127;SDS011;2582;48.770;9.190;2022-12-13T16:17:20;26.90;;;14.10;;
5127;SDS011;2582;48.770;9.190;2022-12-13T16:19:54;39.20;;;19.67;;
5127;SDS011;2582;48.770;9.190;2022-12-13T16:22:22;17.50;;;11.50;;
5127;SDS011;2582;48.770;9.190;2022-12-13T16:24:48;20.20;;;12.70;;
5127;SDS011;2582;48.770;9.190;2022-12-13T16:27:15;29.30;;;13.07;;
5127;SDS011;2582;48.770;9.190;2022-12-13T16:29:41;17.60;;;11.47;;
5127;SDS011;2582;48.770;9.190;2022-12-13T16:32:07;21.73;;;13.43;;
5127;SDS011;2582;48.770;9.190;2022-12-13T16:34:37;18.97;;;11.40;;
5127;SDS011;2582;48.770;9.190;2022-12-13T16:37:03;22.03;;;13.50;;
5127;SDS011;2582;48.770;9.190;2022-12-13T16:39:29;22.60;;;13.07;;
5127;SDS011;2582;48.770;9.190;2022-12-13T16:41:54;20.43;;;13.13;;
5127;SDS011;2582;48.770;9.190;2022-12-13T16:44:21;19.17;;;13.87;;
5127;SDS011;2582;48.770;9.190;2022-12-13T16:46:53;19.80;;;13.93;;
5127;SDS011;2582;48.770;9.190;2022-12-13T16:51:47;25.87;;;14.47;;
5127;SDS011;2582;48.770;9.190;2022-12-13T16:54:13;27.47;;;15.40;;
5127;SDS011;2582;48.770;9.190;2022-12-13T16:56:38;21.50;;;13.77;;
5127;SDS011;2582;48.770;9.190;2022-12-13T16:59:04;15.70;;;11.80;;
5127;SDS011;2582;48.770;9.190;2022-12-13T17:01:29;20.83;;;13.93;;
5127;SDS011;2582;48.770;9.190;2022-12-13T17:03:56;19.97;;;12.70;;
5127;SDS011;2582;48.770;9.190;2022-12-13T17:06:23;17.53;;;12.70;;
5127;SDS011;2582;48.770;9.190;2022-12-13T17:08:49;28.57;;;15.80;;
5127;SDS011;2582;48.770;9.190;2022-12-13T17:11:14;22.20;;;16.33;;
5127;SDS011;2582;48.770;9.190;2022-12-13T17:13:40;19.13;;;13.20;;